Time;durP1;ratioP1;P1;durP2;ratioP2;P2;SDS_P1;SDS_P2;PMS_P1;PMS_P2;Temp;Humidity;BMP_temperature;BMP_pressure;BME280_temperature;BME280_humidity;BME280_pressure;Samples;Min_cycle;Max_cycle;Signal;HPM_P1;HPM_P2
2023/05/14 00:01:23;;;;;;;16.08;14.23;;;;;;;12.56;99.83;101788.81;5056123;28;20025;-50
2023/05/14 00:03:48;;;;;;;16.05;14.15;;;;;;;12.51;100.00;101793.81;5055716;28;20025;-52
2023/05/14 00:06:14;;;;;;;17.27;13.70;;;;;;;12.44;100.00;101793.53;5056410;28;20362;-48
2023/05/14 00:08:39;;;;;;;18.85;14.30;;;;;;;12.29;100.00;101788.66;5056103;28;20107;-53
2023/05/14 00:11:04;;;;;;;15.30;13.70;;;;;;;12.19;100.00;101778.00;5055490;28;20147;-50
2023/05/14 00:13:30;;;;;;;16.73;14.38;;;;;;;12.19;100.00;101778.00;5055792;28;20464;-51
2023/05/14 00:15:55;;;;;;;15.82;14.13;;;;;;;12.14;100.00;101782.09;5056262;28;20469;-49
2023/05/14 00:18:20;;;;;;;18.27;15.25;;;;;;;12.06;100.00;101773.19;5055239;28;20021;-51
2023/05/14 00:20:45;;;;;;;17.35;15.52;;;;;;;11.96;100.00;101768.50;5056190;28;20025;-51
2023/05/14 00:23:11;;;;;;;17.58;15.77;;;;;;;11.96;100.00;101771.94;5055955;28;20039;-52
2023/05/14 00:25:36;;;;;;;18.60;15.40;;;;;;;11.85;100.00;101779.25;5055029;28;20090;-49
2023/05/14 00:28:02;;;;;;;17.58;15.65;;;;;;;11.74;100.00;101777.94;5055919;28;20060;-49
2023/05/14 00:30:28;;;;;;;21.15;16.10;;;;;;;11.68;100.00;101772.53;5055524;28;20104;-51
2023/05/14 00:32:53;;;;;;;18.98;15.95;;;;;;;11.62;100.00;101769.69;5055257;28;20105;-51
2023/05/14 00:35:20;;;;;;;19.10;17.23;;;;;;;11.52;100.00;101766.75;5055640;28;20033;-50
2023/05/14 00:37:45;;;;;;;18.57;16.40;;;;;;;11.46;100.00;101770.78;5055902;28;20051;-51
2023/05/14 00:40:11;;;;;;;19.48;17.38;;;;;;;11.40;100.00;101763.69;5054933;28;20465;-51
2023/05/14 00:42:37;;;;;;;20.63;18.42;;;;;;;11.30;100.00;101758.97;5055415;28;20025;-52
2023/05/14 00:45:03;;;;;;;20.90;18.77;;;;;;;11.23;100.00;101762.09;5055192;28;20033;-52
2023/05/14 00:47:28;;;;;;;20.23;18.00;;;;;;;11.13;100.00;101751.38;5055035;28;20428;-50
2023/05/14 00:49:54;;;;;;;18.83;17.02;;;;;;;11.10;100.00;101746.09;5055612;28;20064;-52
2023/05/14 00:52:20;;;;;;;19.95;18.05;;;;;;;11.06;100.00;101748.50;5054596;28;20025;-48
2023/05/14 00:54:47;;;;;;;21.77;19.67;;;;;;;10.97;100.00;101743.81;5055535;28;20115;-49
2023/05/14 00:57:13;;;;;;;21.17;19.03;;;;;;;10.93;100.00;101747.09;5055388;28;20377;-49
2023/05/14 00:59:40;;;;;;;22.33;19.83;;;;;;;10.87;100.00;101748.59;5053481;28;20017;-49
2023/05/14 01:02:06;;;;;;;23.02;20.27;;;;;;;10.83;100.00;101745.81;5055346;28;20034;-49
2023/05/14 01:04:31;;;;;;;22.27;20.05;;;;;;;10.81;100.00;101745.75;5055097;28;20024;-52
2023/05/14 01:07:22;;;;;;;21.88;19.60;;;;;;;10.81;100.00;101748.31;5054412;28;20384;-53
2023/05/14 01:10:18;;;;;;;23.80;21.35;;;;;;;10.81;100.00;101750.91;5055161;28;20465;-49
2023/05/14 01:13:21;;;;;;;23.38;20.48;;;;;;;10.75;100.00;101748.03;5054503;28;20397;-49
2023/05/14 01:15:48;;;;;;;23.88;21.48;;;;;;;10.63;100.00;101747.53;5055044;28;20127;-52
2023/05/14 01:18:17;;;;;;;23.10;20.80;;;;;;;10.53;100.00;101752.28;5055008;28;20124;-52
2023/05/14 01:20:44;;;;;;;24.42;22.02;;;;;;;10.50;100.00;101749.56;5054026;28;20029;-49
2023/05/14 01:23:10;;;;;;;26.00;23.50;;;;;;;10.51;100.00;101746.19;5055084;28;20029;-52
2023/05/14 01:25:36;;;;;;;25.52;23.02;;;;;;;10.43;100.00;101747.53;5054683;28;20031;-48
2023/05/14 01:28:22;;;;;;;28.92;24.95;;;;;;;10.40;100.00;101739.66;5054202;28;20020;-52
2023/05/14 01:30:50;;;;;;;27.45;24.50;;;;;;;10.42;100.00;101732.88;5054966;28;20036;-50
2023/05/14 01:33:19;;;;;;;;;;;;;;;10.52;100.00;101729.00;5055054;28;20031;-51
2023/05/14 01:35:45;;;;;;;;;;;;;;;10.51;100.00;101735.88;5054778;28;19917;-50
2023/05/14 01:38:11;;;;;;;;;;;;;;;10.48;100.00;101733.16;5055311;28;19999;-52
2023/05/14 01:40:37;;;;;;;;;;;;;;;10.44;100.00;101731.25;5054787;28;19995;-53
2023/05/14 01:43:03;;;;;;;;;;;;;;;10.42;100.00;101727.72;5054265;28;20000;-52
2023/05/14 01:45:29;;;;;;;;;;;;;;;10.39;100.00;101732.72;5054549;28;20000;-51
2023/05/14 01:47:54;;;;;;;;;;;;;;;10.36;100.00;101730.91;5055037;28;19912;-52
2023/05/14 01:50:19;;;;;;;;;;;;;;;10.34;100.00;101731.59;5053994;28;19962;-49
2023/05/14 01:52:44;;;;;;;;;;;;;;;10.33;100.00;101737.59;5054956;28;20292;-52
2023/05/14 01:55:10;;;;;;;;;;;;;;;10.32;100.00;101746.13;5054706;28;19940;-50
2023/05/14 01:57:35;;;;;;;;;;;;;;;10.28;100.00;101739.09;5053753;28;19916;-52
2023/05/14 02:00:00;;;;;;;;;;;;;;;10.29;100.00;101733.09;5054608;28;20007;-52
2023/05/14 02:02:25;;;;;;;;;;;;;;;10.30;100.00;101737.44;5053962;28;19960;-54
2023/05/14 02:04:51;;;;;;;;;;;;;;;10.28;100.00;101729.66;5054423;28;20269;-53
2023/05/14 02:07:16;;;;;;;;;;;;;;;10.27;100.00;101727.88;5054351;28;19908;-52
2023/05/14 02:09:41;;;;;;;;;;;;;;;10.28;100.00;101723.63;5053680;28;20005;-51
2023/05/14 02:12:07;;;;;;;;;;;;;;;10.28;100.00;101723.63;5054392;28;20284;-52
2023/05/14 02:14:32;;;;;;;;;;;;;;;10.27;100.00;101722.72;5053700;28;19963;-53
2023/05/14 02:16:58;;;;;;;;;;;;;;;10.26;100.00;101712.34;5053651;28;19912;-51
2023/05/14 02:19:23;;;;;;;;;;;;;;;10.26;100.00;101720.09;5053971;28;19974;-51
2023/05/14 02:21:49;;;;;;;;;;;;;;;10.22;100.00;101729.38;5054378;28;19912;-50
2023/05/14 02:24:14;;;;;;;;;;;;;;;10.17;100.00;101726.59;5053759;28;20339;-53
2023/05/14 02:26:39;;;;;;;;;;;;;;;10.16;100.00;101727.41;5053951;28;19913;-53
2023/05/14 02:29:04;;;;;;;;;;;;;;;10.18;100.00;101715.47;5053959;28;19941;-53
2023/05/14 02:31:29;;;;;;;;;;;;;;;10.20;100.00;101719.00;5052938;28;20360;-52
2023/05/14 02:33:55;;;;;;;;;;;;;;;10.21;100.00;101717.28;5054106;28;19919;-53
2023/05/14 02:36:20;;;;;;;;;;;;;;;10.22;100.00;101713.91;5053736;28;19967;-49
2023/05/14 02:38:45;;;;;;;;;;;;;;;10.24;100.00;101713.97;5053062;28;19913;-50
2023/05/14 02:41:10;;;;;;;;;;;;;;;10.23;100.00;101719.97;5053761;28;19955;-51
2023/05/14 02:43:35;;;;;;;;;;;;;;;10.20;100.00;101715.56;5053535;28;20008;-51
2023/05/14 02:46:01;;;;;;;;;;;;;;;10.17;100.00;101716.31;5053266;28;19913;-54
2023/05/14 02:48:26;;;;;;;;;;;;;;;10.14;100.00;101720.44;5053272;28;20379;-53
2023/05/14 02:50:51;;;;;;;;;;;;;;;10.10;100.00;101724.53;5053877;28;20437;-53
2023/05/14 02:53:16;;;;;;;;;;;;;;;10.05;100.00;101720.88;5052614;28;19913;-53
2023/05/14 02:55:42;;;;;;;;;;;;;;;10.01;100.00;101716.41;5053566;28;19925;-52
2023/05/14 02:58:07;;;;;;;;;;;;;;;9.96;100.00;101717.88;5053680;28;19913;-52
2023/05/14 03:00:32;;;;;;;;;;;;;;;9.92;100.00;101719.44;5052451;28;19999;-52
2023/05/14 03:02:57;;;;;;;;;;;;;;;9.89;100.00;101716.72;5053746;28;19912;-52
2023/05/14 03:05:22;;;;;;;;;;;;;;;9.83;100.00;101714.72;5053410;28;20316;-52
2023/05/14 03:07:50;;;;;;;;;;;;;;;9.79;100.00;101707.69;5052847;28;19919;-52
2023/05/14 03:10:15;;;;;;;;;;;;;;;9.77;100.00;101713.56;5053322;28;19913;-54
2023/05/14 03:12:40;;;;;;;;;;;;;;;9.72;100.00;101716.81;5053386;28;19916;-52
2023/05/14 03:15:06;;;;;;;;;;;;;;;9.70;100.00;101704.69;5052249;28;19920;-50
2023/05/14 03:17:31;;;;;;;;;;;;;;;9.68;100.00;101701.13;5053252;28;19920;-52
2023/05/14 03:19:56;;;;;;;;;;;;;;;9.65;100.00;101698.44;5052631;28;19908;-53
2023/05/14 03:22:21;;;;;;;;;;;;;;;9.63;100.00;101700.03;5052694;28;19966;-53
2023/05/14 03:24:46;;;;;;;;;;;;;;;9.60;100.00;101690.50;5053140;28;19908;-53
2023/05/14 03:27:12;;;;;;;;;;;;;;;9.59;100.00;101703.28;5052463;28;19947;-52
2023/05/14 03:29:37;;;;;;;;;;;;;;;9.56;100.00;101694.59;5052924;28;20276;-51
2023/05/14 03:32:02;;;;;;;;;;;;;;;9.54;100.00;101703.97;5053351;28;19962;-53
2023/05/14 03:34:27;;;;;;;;;;;;;;;9.51;100.00;101700.34;5052248;28;19920;-52
2023/05/14 03:36:52;;;;;;;;;;;;;;;9.46;100.00;101700.13;5053117;28;19913;-51
2023/05/14 03:39:18;;;;;;;;;;;;;;;9.41;100.00;101704.16;5052750;28;20288;-50
2023/05/14 03:41:45;;;;;;;;;;;;;;;9.39;100.00;101695.50;5052263;28;20066;-53
2023/05/14 03:44:10;;;;;;;;;;;;;;;9.39;100.00;101695.50;5052931;28;19919;-53
2023/05/14 03:46:36;;;;;;;;;;;;;;;9.38;100.00;101688.59;5052855;28;19913;-53
2023/05/14 03:49:01;;;;;;;;;;;;;;;9.36;100.00;101695.34;5052349;28;19913;-53
2023/05/14 03:51:26;;;;;;;;;;;;;;;9.34;100.00;101691.81;5052733;28;19920;-54
2023/05/14 03:53:51;;;;;;;;;;;;;;;9.32;100.00;101698.56;5053157;28;19913;-53
2023/05/14 03:56:16;;;;;;;;;;;;;;;9.30;100.00;101695.06;5051864;28;20340;-54
2023/05/14 03:58:41;;;;;;;;;;;;;;;9.28;100.00;101694.97;5052835;28;19913;-52
2023/05/14 04:01:07;;;;;;;;;;;;;;;9.26;100.00;101694.03;5053084;28;19913;-52
2023/05/14 04:03:32;;;;;;;;;;;;;;;9.25;100.00;101693.97;5051863;28;20276;-53
2023/05/14 04:05:57;;;;;;;;;;;;;;;9.25;100.00;101691.38;5052957;28;19919;-53
2023/05/14 04:08:22;;;;;;;;;;;;;;;9.23;100.00;101693.84;5052607;28;20360;-53
2023/05/14 04:10:48;;;;;;;;;;;;;;;9.22;100.00;101690.41;5051938;28;20357;-53
2023/05/14 04:13:13;;;;;;;;;;;;;;;9.22;100.00;101693.00;5052651;28;20361;-53
2023/05/14 04:15:38;;;;;;;;;;;;;;;9.21;100.00;101685.22;5052222;28;19917;-53
2023/05/14 04:18:04;;;;;;;;;;;;;;;9.20;100.00;101686.88;5052065;28;19916;-53
2023/05/14 04:20:29;;;;;;;;;;;;;;;9.20;100.00;101688.59;5052628;28;19916;-53
2023/05/14 04:22:54;;;;;;;;;;;;;;;9.18;100.00;101683.38;5052732;28;19935;-53
2023/05/14 04:25:19;;;;;;;;;;;;;;;9.19;100.00;101689.38;5051591;28;19921;-53
2023/05/14 04:27:45;;;;;;;;;;;;;;;9.20;100.00;101689.44;5052646;28;19995;-53
2023/05/14 04:30:10;;;;;;;;;;;;;;;9.20;100.00;101691.16;5051761;28;19959;-54
2023/05/14 04:32:35;;;;;;;;;;;;;;;9.21;100.00;101691.22;5052420;28;19927;-54
2023/05/14 04:35:01;;;;;;;;;;;;;;;9.23;100.00;101681.91;5054221;28;19913;-54
2023/05/14 04:37:26;;;;;;;;;;;;;;;9.23;100.00;101689.63;5055066;28;19920;-53
2023/05/14 04:39:51;;;;;;;;;;;;;;;9.23;100.00;101683.56;5056218;28;19913;-54
2023/05/14 04:42:16;;;;;;;;;;;;;;;9.26;100.00;101687.97;5055716;28;20322;-52
2023/05/14 04:44:41;;;;;;;;;;;;;;;9.26;100.00;101685.41;5055509;28;19917;-54
2023/05/14 04:47:07;;;;;;;;;;;;;;;9.28;100.00;101691.53;5056236;28;19920;-53
2023/05/14 04:49:32;;;;;;;;;;;;;;;9.30;100.00;101689.94;5055694;28;20287;-53
2023/05/14 04:51:57;;;;;;;;;;;;;;;9.31;100.00;101684.84;5055285;28;19958;-53
2023/05/14 04:54:22;;;;;;;;;;;;;;;9.34;100.00;101686.69;5055613;28;19913;-53
2023/05/14 04:56:48;;;;;;;;;;;;;;;9.37;100.00;101686.81;5055703;28;19913;-52
2023/05/14 04:59:13;;;;;;;;;;;;;;;9.39;100.00;101695.50;5055088;28;19917;-53
2023/05/14 05:01:38;;;;;;;;;;;;;;;9.41;100.00;101696.44;5055704;28;19944;-53
2023/05/14 05:04:03;;;;;;;;;;;;;;;9.46;100.00;101697.53;5055831;28;19999;-53
2023/05/14 05:06:28;;;;;;;;;;;;;;;9.48;100.00;101693.38;5054727;28;20422;-53
2023/05/14 05:08:54;;;;;;;;;;;;;;;9.51;100.00;101690.94;5055685;28;19919;-53
2023/05/14 05:11:20;;;;;;;;;;;;;;;9.51;100.00;101688.34;5055246;28;20261;-54
2023/05/14 05:13:45;;;;;;;;;;;;;;;9.53;100.00;101694.47;5054550;28;20007;-53
2023/05/14 05:16:10;;;;;;;;;;;;;;;9.54;100.00;101693.66;5055633;28;20276;-53
2023/05/14 05:18:35;;;;;;;;;;;;;;;9.55;100.00;101698.00;5055409;28;19913;-52
2023/05/14 05:21:00;;;;;;;;;;;;;;;9.59;100.00;101693.00;5054881;28;19920;-53
2023/05/14 05:23:26;;;;;;;;;;;;;;;9.64;100.00;101704.38;5055222;28;20380;-53
2023/05/14 05:25:51;;;;;;;;;;;;;;;9.68;100.00;101704.63;5055485;28;19913;-53
2023/05/14 05:28:16;;;;;;;;;;;;;;;9.73;100.00;101697.09;5054172;28;19909;-53
2023/05/14 05:30:43;;;;;;;;;;;;;;;9.79;100.00;101702.53;5055025;28;19913;-53
2023/05/14 05:33:09;;;;;;;;;;;;;;;9.84;100.00;101701.06;5055384;28;20003;-51
2023/05/14 05:35:34;;;;;;;;;;;;;;;9.89;100.00;101704.72;5054178;28;20609;-53
2023/05/14 05:37:59;;;;;;;;;;;;;;;9.95;100.00;101704.09;5055245;28;19963;-53
2023/05/14 05:40:25;;;;;;;;;;;;;;;10.03;100.00;101707.03;5054828;28;19936;-53
2023/05/14 05:42:50;;;;;;;;;;;;;;;10.06;100.00;101707.19;5054197;28;19908;-53
2023/05/14 05:45:15;;;;;;;;;;;;;;;10.14;100.00;101704.97;5054659;28;20272;-51
2023/05/14 05:47:40;;;;;;;;;;;;;;;10.21;100.00;101709.56;5054385;28;19962;-53
2023/05/14 05:50:06;;;;;;;;;;;;;;;10.27;100.00;101703.81;5054983;28;19912;-51
2023/05/14 05:52:31;;;;;;;;;;;;;;;10.31;100.00;101703.13;5054549;28;20265;-53
2023/05/14 05:54:56;;;;;;;;;;;;;;;10.34;100.00;101711.91;5053867;28;19915;-53
2023/05/14 05:57:22;;;;;;;;;;;;;;;10.40;100.00;101708.72;5054313;28;20368;-52
2023/05/14 05:59:47;;;;;;;;;;;;;;;10.47;100.00;101712.44;5054804;28;19913;-53
2023/05/14 06:02:12;;;;;;;;;;;;;;;10.54;100.00;101717.94;5053731;28;19962;-53
2023/05/14 06:04:38;;;;;;;;;;;;;;;10.61;100.00;101720.78;5054379;28;19995;-53
2023/05/14 06:07:03;;;;;;;;;;;;;;;10.65;100.00;101718.44;5054615;28;19915;-53
2023/05/14 06:09:28;;;;;;;;;;;;;;;10.69;100.00;101715.16;5053444;28;19919;-53
2023/05/14 06:11:53;;;;;;;;;;;;;;;10.75;100.00;101717.09;5054400;28;20427;-53
2023/05/14 06:14:18;;;;;;;;;;;;;;;10.85;100.00;101719.25;5053933;28;20368;-53
2023/05/14 06:16:44;;;;;;;;;;;;;;;11.01;100.00;101723.38;5053567;28;19961;-53
2023/05/14 06:19:09;;;;;;;;;;;;;;;11.20;100.00;101721.56;5054326;28;20007;-53
2023/05/14 06:21:35;;;;;;;;;;;;;;;11.42;100.00;101725.88;5054047;28;20256;-54
2023/05/14 06:24:00;;;;;;;;;;;;;;;11.63;100.00;101728.47;5053313;28;19971;-53
2023/05/14 06:26:25;;;;;;;;;;;;;;;11.86;100.00;101731.94;5053873;28;20388;-54
2023/05/14 06:28:50;;;;;;;;;;;;;;;12.07;100.00;101736.19;5054246;28;20000;-53
2023/05/14 06:31:16;;;;;;;;;;;;;;;12.28;100.00;101735.25;5053184;28;20280;-52
2023/05/14 06:33:41;;;;;;;;;;;;;;;12.51;100.00;101734.34;5054118;28;19913;-53
2023/05/14 06:36:06;;;;;;;;;;;;;;;12.73;100.00;101742.88;5053951;28;19912;-53
2023/05/14 06:38:32;;;;;;;;;;;;;;;12.92;100.00;101736.63;5052937;28;20281;-53
2023/05/14 06:40:57;;;;;;;;;;;;;;;13.10;100.00;101731.19;5053827;28;20280;-53
2023/05/14 06:43:22;;;;;;;;;;;;;;;13.27;100.00;101733.44;5053355;28;19994;-54
2023/05/14 06:45:48;;;;;;;;;;;;;;;13.42;100.00;101728.81;5053272;28;19962;-54
2023/05/14 06:48:13;;;;;;;;;;;;;;;13.52;100.00;101724.81;5053791;28;19913;-54
2023/05/14 06:50:39;;;;;;;;;;;;;;;13.62;100.00;101720.78;5053489;28;19935;-53
2023/05/14 06:53:04;;;;;;;;;;;;;;;13.73;100.00;101726.31;5053160;28;20000;-54
2023/05/14 06:55:29;;;;;;;;;;;;;;;13.80;100.00;101726.53;5053266;28;19974;-52
2023/05/14 06:57:54;;;;;;;;;;;;;;;13.85;100.00;101721.47;5052448;28;19916;-54
2023/05/14 07:00:20;;;;;;;;;;;;;;;13.89;100.00;101725.94;5053063;28;19916;-54
2023/05/14 07:02:45;;;;;;;;;;;;;;;13.88;100.00;101723.28;5053717;28;20019;-54
2023/05/14 07:05:10;;;;;;;;;;;;;;;13.85;100.00;101723.22;5052684;28;20235;-53
2023/05/14 07:07:35;;;;;;;;;;;;;;;13.74;100.00;101723.75;5053163;28;19913;-54
2023/05/14 07:10:01;;;;;;;;;;;;;;;13.62;100.00;101721.69;5053493;28;20007;-53
2023/05/14 07:12:26;;;;;;;;;;;;;;;13.54;100.00;101727.44;5052259;28;19913;-53
2023/05/14 07:14:51;;;;;;;;;;;;;;;13.50;100.00;101727.34;5053204;28;19956;-54
2023/05/14 07:17:16;;;;;;;;;;;;;;;13.47;100.00;101729.84;5052938;28;20253;-54
2023/05/14 07:19:42;;;;;;;;;;;;;;;13.46;100.00;101730.66;5052600;28;19921;-54
2023/05/14 07:22:08;;;;;;;;;;;;;;;13.46;100.00;101728.06;5053186;28;19923;-53
2023/05/14 07:24:33;;;;;;;;;;;;;;;13.49;100.00;101725.59;5052993;28;20007;-54
2023/05/14 07:26:58;;;;;;;;;;;;;;;13.51;100.00;101725.63;5052350;28;19919;-54
2023/05/14 07:29:24;;;;;;;;;;;;;;;13.54;100.00;101730.03;5052896;28;20282;-52
2023/05/14 07:31:50;;;;;;;;;;;;;;;13.60;100.00;101728.50;5053267;28;20011;-53
2023/05/14 07:34:15;;;;;;;;;;;;;;;13.67;100.00;101726.97;5052266;28;20011;-53
2023/05/14 07:36:40;;;;;;;;;;;;;;;13.69;100.00;101727.91;5053139;28;19916;-54
2023/05/14 07:39:05;;;;;;;;;;;;;;;13.75;100.00;101722.94;5053075;28;19919;-53
2023/05/14 07:41:31;;;;;;;;;;;;;;;13.85;100.00;101730.97;5052057;28;20361;-53
2023/05/14 07:43:56;;;;;;;;;;;;;;;13.97;100.00;101726.19;5053229;28;19920;-53
2023/05/14 07:46:22;;;;;;;;;;;;;;;14.02;100.00;101727.19;5052936;28;19912;-53
2023/05/14 07:48:48;;;;;;;;;;;;;;;14.05;100.00;101719.50;5052421;28;19913;-52
2023/05/14 07:51:13;;;;;;;;;;;;;;;14.09;100.00;101729.13;5052933;28;19947;-53
2023/05/14 07:53:38;;;;;;;;;;;;;;;14.03;100.00;101718.56;5052736;28;20396;-53
2023/05/14 07:56:03;;;;;;;;;;;;;;;14.03;100.00;101723.75;5052091;28;19913;-50
2023/05/14 07:58:29;;;;;;;;;;;;;;;14.09;100.00;101723.06;5052780;28;19935;-53
2023/05/14 08:00:55;;;;;;;;;;;;;;;14.15;100.00;101718.94;5053075;28;19920;-48
2023/05/14 08:03:20;;;;;;;;;;;;;;;14.19;100.00;101719.00;5051930;28;19913;-53
2023/05/14 08:05:45;;;;;;;;;;;;;;;14.30;100.00;101717.59;5052987;28;19967;-53
2023/05/14 08:08:11;;;;;;;;;;;;;;;14.46;100.00;101718.91;5052629;28;19913;-54
2023/05/14 08:10:36;;;;;;;;;;;;;;;14.65;100.00;101710.84;5056526;28;20288;-52
2023/05/14 08:13:01;;;;;;;;;;;;;;;14.86;100.00;101713.94;5056728;28;19920;-53
2023/05/14 08:15:27;;;;;;;;;;;;;;;15.05;100.00;101721.34;5055395;28;19924;-54
2023/05/14 08:17:52;;;;;;;;;;;;;;;15.25;100.00;101711.47;5056756;28;19999;-54
2023/05/14 08:20:17;;;;;;;;;;;;;;;15.40;100.00;101718.75;5056500;28;19913;-54
2023/05/14 08:22:42;;;;;;;;;;;;;;;15.47;98.08;101712.84;5056092;28;19912;-54
2023/05/14 08:25:08;;;;;;;;;;;;;;;15.54;97.42;101718.19;5056305;28;19983;-52
2023/05/14 08:27:33;;;;;;;;;;;;;;;15.61;97.45;101717.50;5056411;28;19913;-54
2023/05/14 08:29:58;;;;;;;;;;;;;;;15.64;97.14;101714.97;5055929;28;20353;-52
2023/05/14 08:32:23;;;;;;;;;;;;;;;15.67;96.49;101715.00;5056185;28;19919;-54
2023/05/14 08:34:49;;;;;;;;;;;;;;;15.71;96.50;101716.88;5056337;28;20323;-52
2023/05/14 08:37:14;;;;;;;;;;;;;;;15.71;91.83;101713.38;5055339;28;19917;-55
2023/05/14 08:39:39;;;;;;;;;;;;;;;15.80;95.31;101711.88;5055964;28;19959;-54
2023/05/14 08:42:05;;;;;;;;;;;;;;;15.98;94.57;101702.72;5056034;28;19964;-55
2023/05/14 08:44:35;;;;;;;;;;;;;;;16.20;93.73;101703.16;5055342;28;20268;-54
2023/05/14 08:47:00;;;;;;;;;;;;;;;16.41;92.14;101708.78;5056145;28;19913;-54
2023/05/14 08:49:28;;;;;;;;;;;;;;;16.59;90.77;101707.38;5055596;28;20280;-53
2023/05/14 08:51:54;;;;;;;;;;;;;;;16.75;92.13;101712.00;5055225;28;20319;-54
2023/05/14 08:54:22;;;;;;;;;;;;;;;17.05;92.85;101703.00;5055588;28;20418;-54
2023/05/14 08:56:47;;;;;;;;;;;;;;;17.44;93.09;101698.41;5055789;28;19913;-54
2023/05/14 08:59:12;;;;;;;;;;;;;;;17.83;91.36;101693.72;5055297;28;20391;-54
2023/05/14 09:01:38;;;;;;;;;;;;;;;18.13;90.46;101692.38;5055677;28;19931;-54
2023/05/14 09:04:07;;;;;;;;;;;;;;;18.33;88.59;101685.66;5055813;28;19913;-54
2023/05/14 09:06:33;;;;;;;;;;;;;;;18.45;87.94;101684.94;5054606;28;20283;-55
2023/05/14 09:08:58;;;;;;;;;;;;;;;18.59;86.63;101687.66;5055490;28;19908;-54
2023/05/14 09:11:23;;;;;;;;;;;;;;;18.69;84.58;101688.63;5055541;28;19920;-53
2023/05/14 09:13:48;;;;;;;;;;;;;;;18.71;85.28;101693.00;5054772;28;20003;-55
2023/05/14 09:16:14;;;;;;;;;;;;;;;18.67;78.45;101680.78;5055519;28;20265;-55
2023/05/14 09:18:42;;;;;;;;;;;;;;;18.53;75.26;101682.41;5054690;28;19936;-54
2023/05/14 09:21:07;;;;;;;;;;;;;;;18.39;78.77;101677.91;5054806;28;19909;-54
2023/05/14 09:23:33;;;;;;;;;;;;;;;18.37;81.27;101671.81;5055069;28;19919;-55
2023/05/14 09:26:02;;;;;;;;;;;;;;;18.38;77.49;101670.91;5054515;28;20004;-54
2023/05/14 09:28:29;;;;;;;;;;;;;;;18.41;79.12;101670.06;5055076;28;19908;-54
2023/05/14 09:30:54;;;;;;;;;;;;;;;18.52;78.47;101670.19;5055167;28;20375;-54
2023/05/14 09:33:27;;;;;;;;;;;;;;;18.55;73.23;101670.22;5054214;28;20376;-55
2023/05/14 09:35:54;;;;;;;;;;;;;;;18.58;78.63;101675.50;5055033;28;19971;-54
2023/05/14 09:38:19;;;;;;;;;;;;;;;18.78;80.91;101674.78;5054705;28;20348;-55
2023/05/14 09:40:45;;;;;;;;;;;;;;;18.97;77.46;101668.88;5054441;28;20402;-54
2023/05/14 09:43:10;;;;;;;;;;;;;;;19.14;77.11;101670.75;5055052;28;19919;-54
2023/05/14 09:45:35;;;;;;;;;;;;;;;19.28;77.19;101669.13;5054725;28;19912;-54
2023/05/14 09:48:01;;;;;;;;;;;;;;;19.42;77.02;101663.97;5054162;28;20356;-54
2023/05/14 09:50:26;;;;;;;;;;;;;;;19.56;74.72;101664.03;5054654;28;19913;-55
2023/05/14 09:52:53;;;;;;;;;;;;;;;19.78;75.49;101653.69;5054804;28;19912;-54
2023/05/14 09:55:19;;;;;;;;;;;;;;;20.01;75.78;101651.19;5053805;28;19959;-55
2023/05/14 09:57:44;;;;;;;;;;;;;;;20.39;73.17;101656.50;5054901;28;20344;-55
2023/05/14 10:00:11;;;;;;;;;;;;;;;20.62;72.15;101655.69;5054633;28;19913;-54
2023/05/14 10:02:37;;;;;;;;;;;;;;;21.02;72.08;101655.72;5053550;28;19966;-55
2023/05/14 10:05:03;;;;;;;;;;;;;;;21.43;66.22;101655.63;5054431;28;20019;-54
2023/05/14 10:07:32;;;;;;;;;;;;;;;21.73;68.19;101654.72;5054073;28;19912;-56
2023/05/14 10:10:00;;;;;;;;;;;;;;;22.11;64.11;101656.25;5053951;28;19912;-55
2023/05/14 10:12:28;;;;;;;;;;;;;;;22.59;62.25;101653.34;5054236;28;19916;-55
2023/05/14 10:14:55;;;;;;;;;;;;;;;23.07;61.92;101649.44;5053601;28;19924;-55
2023/05/14 10:17:21;;;;;;;;;;;;;;;23.55;58.62;101654.22;5054113;28;19959;-55
2023/05/14 10:19:51;;;;;;;;;;;;;;;24.19;51.72;101644.63;5054196;28;19913;-54
2023/05/14 10:22:18;;;;;;;;;;;;;;;24.64;54.24;101646.63;5053399;28;20002;-54
2023/05/14 10:24:44;;;;;;;;;;;;;;;25.17;51.68;101649.19;5054240;28;19966;-54
2023/05/14 10:27:10;;;;;;;;;;;;;;;25.79;51.16;101648.00;5054056;28;19913;-54
2023/05/14 10:29:36;;;;;;;;;;;;;;;26.40;50.44;101647.53;5052958;28;19921;-54
2023/05/14 10:32:04;;;;;;;;;;;;;;;26.81;45.31;101650.97;5053133;28;19913;-54
2023/05/14 10:34:31;;;;;;;;;;;;;;;27.14;44.61;101645.72;5053618;28;20364;-54
2023/05/14 10:37:15;;;;;;;;;;;;;;;27.39;45.42;101655.63;5053264;28;19936;-54
2023/05/14 10:39:49;;;;;;;;;;;;;;;27.75;44.79;101647.53;5054120;28;20003;-55
2023/05/14 10:42:16;;;;;;;;;;;;;;;28.28;40.91;101640.63;5054052;28;19954;-55
2023/05/14 10:44:46;;;;;;;;;;;;;;;28.48;43.87;101643.50;5052919;28;19913;-55
2023/05/14 10:47:11;;;;;;;;;;;;;;;28.60;40.15;101636.94;5053651;28;20357;-55
2023/05/14 10:49:36;;;;;;;;;;;;;;;28.66;41.21;101630.59;5053385;28;19999;-54
2023/05/14 10:52:01;;;;;;;;;;;;;;;28.75;40.79;101632.91;5053137;28;19944;-55
2023/05/14 10:54:27;;;;;;;;;;;;;;;29.10;40.44;101630.81;5053309;28;19913;-54
2023/05/14 10:56:52;;;;;;;;;;;;;;;29.54;38.46;101631.00;5053516;28;19913;-54
2023/05/14 10:59:17;;;;;;;;;;;;;;;29.75;35.49;101630.22;5052416;28;19999;-54
2023/05/14 11:01:43;;;;;;;;;;;;;;;29.75;38.05;101623.13;5053751;28;19913;-54
2023/05/14 11:04:16;;;;;;;;;;;;;;;29.79;34.97;101627.41;5052971;28;19913;-54
2023/05/14 11:06:42;;;;;;;;;;;;;;;29.83;35.65;101622.84;5054040;28;19948;-54
2023/05/14 11:09:07;;;;;;;;;;;;;;;29.82;34.85;101619.28;5053602;28;19913;-54
2023/05/14 11:11:34;;;;;;;;;;;;;;;29.68;33.81;101616.31;5052541;28;19913;-54
2023/05/14 11:13:59;;;;;;;;;;;;;;;29.87;33.69;101616.47;5053164;28;19938;-54
2023/05/14 11:16:29;;;;;;;;;;;;;;;30.45;34.96;101617.72;5053201;28;20343;-54
2023/05/14 11:19:02;;;;;;;;;;;;;;;30.94;33.22;101618.28;5052640;28;20329;-54
2023/05/14 11:21:27;;;;;;;;;;;;;;;31.12;31.86;101619.28;5053108;28;19912;-53
2023/05/14 11:23:53;;;;;;;;;;;;;;;31.15;32.87;101612.97;5053379;28;19913;-54
2023/05/14 11:26:18;;;;;;;;;;;;;;;31.17;31.95;101619.09;5052242;28;19913;-56
2023/05/14 11:28:44;;;;;;;;;;;;;;;31.04;32.75;101610.78;5053232;28;19912;-55
2023/05/14 11:31:09;;;;;;;;;;;;;;;31.25;33.28;101608.09;5053305;28;20396;-56
2023/05/14 11:33:34;;;;;;;;;;;;;;;31.42;32.55;101605.50;5052252;28;20719;-56
2023/05/14 11:36:00;;;;;;;;;;;;;;;31.44;30.89;101600.97;5053191;28;19938;-55
2023/05/14 11:38:25;;;;;;;;;;;;;;;31.30;30.91;101603.44;5052883;28;20280;-56
2023/05/14 11:40:51;;;;;;;;;;;;;;;31.40;31.48;101594.06;5052367;28;19912;-56
2023/05/14 11:43:17;;;;;;;;;;;;;;;31.60;30.03;101603.78;5053127;28;19913;-55
2023/05/14 11:45:42;;;;;;;;;;;;;;;31.61;30.28;101594.00;5057189;28;19913;-55
2023/05/14 11:48:11;;;;;;;;;;;;;;;31.45;29.73;101588.53;5056528;28;19909;-55
2023/05/14 11:50:36;;;;;;;;;;;;;;;31.48;31.65;101585.72;5057009;28;19917;-56
2023/05/14 11:53:01;;;;;;;;;;;;;;;31.76;28.92;101582.63;5057027;28;19909;-54
2023/05/14 11:55:26;;;;;;;;;;;;;;;31.67;29.84;101585.72;5056070;28;19916;-54
2023/05/14 11:57:52;;;;;;;;;;;;;;;31.56;31.41;101580.88;5057130;28;19952;-55
2023/05/14 12:00:20;;;;;;;;;;;;;;;31.75;29.93;101580.91;5055991;28;19913;-56
2023/05/14 12:02:46;;;;;;;;;;;;;;;31.63;29.78;101576.16;5056998;28;19913;-56
2023/05/14 12:05:12;;;;;;;;;;;;;;;31.69;31.79;101576.72;5056992;28;19919;-55
2023/05/14 12:07:37;;;;;;;;;;;;;;;31.69;29.10;101573.22;5056006;28;19913;-56
2023/05/14 12:10:03;;;;;;;;;;;;;;;31.78;29.36;101569.25;5056676;28;19951;-55
2023/05/14 12:12:33;;;;;;;;;;;;;;;31.85;29.38;101570.66;5056362;28;19919;-56
2023/05/14 12:14:58;;;;;;;;;;;;;;;31.94;28.47;101564.84;5055802;28;19962;-55